Terminal Aerodrome Forecast
Issued by NWS

Home | Current Version | Previous Version | Text Only | Print | Product List | Glossary On
Versions: 1 2 3 4 5 6 7 8 9 10 11 12
691
FTUS44 KEPZ 262339
TAFDMN
TAF
KDMN 262339Z 2700/2724 26007KT P6SM VCTS SCT070CB SCT120 SCT250
      TEMPO 2700/2704 VRB20G35KT 3SM TSRA BKN040CB
     FM270500 33007KT P6SM SCT080 BKN150
     FM271800 22008KT P6SM VCTS SCT060CB SCT120 SCT250=

USA.gov is the U.S. government's official web portal to all federal, state and local government web resources and services.